Time;durP1;ratioP1;P1;durP2;ratioP2;P2;SDS_P1;SDS_P2;PMS_P1;PMS_P2;Temp;Humidity;BMP_temperature;BMP_pressure;BME280_temperature;BME280_humidity;BME280_pressure;Samples;Min_cycle;Max_cycle;Signal;HPM_P1;HPM_P2
2023/03/05 00:02:06;;;;;;;46.05;16.13;;;;;;;4.17;72.04;100306.91;5002202;28;20059;-82
2023/03/05 00:04:32;;;;;;;47.42;16.60;;;;;;;4.20;72.01;100311.13;5006239;28;20048;-81
2023/03/05 00:06:59;;;;;;;55.75;17.08;;;;;;;4.21;71.95;100304.97;5021467;28;20103;-81
2023/03/05 00:09:26;;;;;;;49.47;16.63;;;;;;;4.22;71.85;100304.03;5033659;28;20095;-82
2023/03/05 00:11:53;;;;;;;52.50;16.75;;;;;;;4.20;72.08;100309.38;5005271;28;20037;-82
2023/03/05 00:14:19;;;;;;;53.97;17.27;;;;;;;4.20;71.79;100301.50;5024705;28;20048;-81
2023/03/05 00:16:46;;;;;;;47.67;15.98;;;;;;;4.22;71.87;100304.84;5010636;28;20459;-82
2023/03/05 00:19:13;;;;;;;46.60;16.35;;;;;;;4.21;72.23;100307.59;5042344;28;20192;-82
2023/03/05 00:21:41;;;;;;;52.05;16.05;;;;;;;4.23;71.85;100305.72;5001780;28;20511;-82
2023/03/05 00:24:12;;;;;;;48.33;15.30;;;;;;;4.23;72.15;100306.56;5005210;28;20049;-81
2023/03/05 00:26:39;;;;;;;51.08;16.70;;;;;;;4.24;71.88;100300.38;5027472;28;20044;-82
2023/03/05 00:29:07;;;;;;;53.08;16.30;;;;;;;4.24;72.04;100295.13;5011449;28;20669;-82
2023/03/05 00:31:35;;;;;;;46.10;15.50;;;;;;;4.24;72.13;100305.63;5025614;28;20399;-81
2023/03/05 00:34:06;;;;;;;49.72;16.40;;;;;;;4.23;72.02;100301.31;5006951;28;20131;-82
2023/03/05 00:36:33;;;;;;;46.83;16.23;;;;;;;4.23;72.13;100297.84;5039513;28;20040;-81
2023/03/05 00:39:00;;;;;;;52.50;16.38;;;;;;;4.24;72.00;100292.50;5018714;28;20136;-81
2023/03/05 00:41:27;;;;;;;45.97;14.93;;;;;;;4.27;72.04;100299.34;4990615;28;20450;-83
2023/03/05 00:43:54;;;;;;;47.63;17.67;;;;;;;4.22;72.19;100289.09;5040479;28;20053;-81
2023/03/05 00:46:21;;;;;;;43.00;15.88;;;;;;;4.21;71.91;100290.03;5018494;28;20038;-82
2023/03/05 00:48:48;;;;;;;57.58;16.40;;;;;;;4.25;71.89;100282.81;5014900;28;20037;-82
2023/03/05 00:51:15;;;;;;;49.88;16.40;;;;;;;4.24;71.82;100281.97;5006288;28;20412;-81
2023/03/05 00:53:42;;;;;;;57.45;18.20;;;;;;;4.27;71.75;100279.16;5034989;28;20041;-82
2023/03/05 00:56:09;;;;;;;55.50;16.65;;;;;;;4.28;71.80;100280.88;4992847;28;20064;-81
2023/03/05 00:58:36;;;;;;;49.35;16.92;;;;;;;4.28;71.83;100278.25;5025652;28;20052;-81
2023/03/05 01:01:03;;;;;;;52.42;17.70;;;;;;;4.26;72.25;100280.13;5009312;28;20792;-82
2023/03/05 01:03:31;;;;;;;54.42;17.08;;;;;;;4.23;72.42;100268.94;5011965;28;20122;-82
2023/03/05 01:05:58;;;;;;;52.80;16.38;;;;;;;4.20;72.57;100264.69;5020937;28;20053;-82
2023/03/05 01:08:25;;;;;;;51.17;16.90;;;;;;;4.21;72.42;100266.38;5003801;28;20045;-82
2023/03/05 01:10:52;;;;;;;56.60;18.90;;;;;;;4.22;72.26;100259.34;5017948;28;20132;-82
2023/03/05 01:13:19;;;;;;;52.17;16.58;;;;;;;4.21;72.06;100250.59;5017389;28;20053;-81
2023/03/05 01:15:47;;;;;;;51.35;17.98;;;;;;;4.23;72.03;100261.06;5020038;28;20037;-82
2023/03/05 01:18:14;;;;;;;56.17;17.73;;;;;;;4.22;71.96;100256.72;5012223;28;20045;-81
2023/03/05 01:20:41;;;;;;;54.30;17.08;;;;;;;4.21;72.08;100253.25;4989615;28;20055;-81
2023/03/05 01:23:08;;;;;;;54.20;16.92;;;;;;;4.22;72.16;100256.72;4992136;28;20073;-82
2023/03/05 01:25:34;;;;;;;50.88;16.40;;;;;;;4.22;72.00;100248.81;5018942;28;20041;-81
2023/03/05 01:28:01;;;;;;;52.03;15.10;;;;;;;4.20;72.21;100238.41;5019014;28;20053;-82
2023/03/05 01:30:28;;;;;;;50.42;14.95;;;;;;;4.23;72.05;100234.75;4987813;28;20511;-81
2023/03/05 01:32:55;;;;;;;56.85;16.40;;;;;;;4.18;72.51;100242.06;5007195;28;20037;-81
2023/03/05 01:35:24;;;;;;;54.08;15.40;;;;;;;4.17;72.90;100238.56;5003578;28;20041;-82
2023/03/05 01:37:51;;;;;;;57.47;18.48;;;;;;;4.12;72.98;100230.94;4987333;28;20041;-81
2023/03/05 01:40:21;;;;;;;53.63;16.15;;;;;;;4.12;73.11;100228.31;5008915;28;20124;-82
2023/03/05 01:42:59;;;;;;;52.60;17.42;;;;;;;4.08;73.22;100233.81;5036008;28;20041;-81
2023/03/05 01:45:30;;;;;;;69.65;19.00;;;;;;;4.11;72.85;100239.75;5007156;28;20037;-81
2023/03/05 01:47:57;;;;;;;52.05;15.57;;;;;;;4.12;72.78;100230.06;5016530;28;20549;-82
2023/03/05 01:50:25;;;;;;;55.42;17.55;;;;;;;4.12;72.57;100228.31;4992566;28;20045;-81
2023/03/05 01:52:57;;;;;;;60.13;17.88;;;;;;;4.13;72.93;100229.16;5008368;28;20099;-82
2023/03/05 01:55:25;;;;;;;54.23;16.67;;;;;;;4.12;73.10;100230.06;5024121;28;20037;-82
2023/03/05 01:58:14;;;;;;;50.80;16.88;;;;;;;4.09;73.16;100219.75;4998451;28;20143;-82
2023/03/05 02:00:46;;;;;;;56.85;15.93;;;;;;;4.01;73.95;100224.59;4998973;28;20045;-82
2023/03/05 02:03:13;;;;;;;49.67;15.25;;;;;;;4.05;73.66;100220.88;5031605;28;20045;-82
2023/03/05 02:05:42;;;;;;;57.72;17.48;;;;;;;4.06;73.12;100218.13;5014192;28;20041;-81
2023/03/05 02:08:12;;;;;;;61.47;17.38;;;;;;;4.08;73.22;100216.28;4999667;28;20103;-82
2023/03/05 02:10:43;;;;;;;62.20;17.95;;;;;;;4.06;73.35;100212.03;5022783;28;20065;-82
2023/03/05 02:13:17;;;;;;;65.95;18.02;;;;;;;4.08;73.08;100203.13;5022910;28;20041;-82
2023/03/05 02:15:43;;;;;;;60.15;17.85;;;;;;;4.14;72.60;100201.94;5007056;28;20469;-82
2023/03/05 02:18:11;;;;;;;59.28;20.00;;;;;;;4.15;72.60;100201.03;5003108;28;20480;-82
2023/03/05 02:20:46;;;;;;;63.20;19.67;;;;;;;4.10;72.86;100192.56;4994235;28;20088;-81
2023/03/05 02:23:13;;;;;;;58.10;18.20;;;;;;;4.11;72.71;100202.97;4986540;28;20045;-81
2023/03/05 02:25:40;;;;;;;62.58;18.60;;;;;;;4.10;72.79;100201.28;5019189;28;20049;-82
2023/03/05 02:28:08;;;;;;;67.22;16.88;;;;;;;4.14;72.62;100194.91;4988908;28;20571;-81
2023/03/05 02:30:36;;;;;;;62.35;18.88;;;;;;;4.16;72.33;100197.44;5032980;28;20049;-82
2023/03/05 02:33:03;;;;;;;57.72;19.08;;;;;;;4.16;72.44;100191.34;5007161;28;20041;-81
2023/03/05 02:35:31;;;;;;;60.92;18.48;;;;;;;4.19;72.31;100194.66;5023829;28;20060;-81
2023/03/05 02:37:58;;;;;;;60.92;19.23;;;;;;;4.21;71.88;100192.78;4999353;28;20136;-82
2023/03/05 02:40:25;;;;;;;59.50;18.38;;;;;;;4.22;71.91;100191.00;4993108;28;20080;-81
2023/03/05 02:42:52;;;;;;;67.03;18.70;;;;;;;4.25;72.00;100185.56;5028482;28;20045;-81
2023/03/05 02:45:19;;;;;;;66.97;17.60;;;;;;;4.25;71.90;100177.66;5017956;28;20133;-81
2023/03/05 02:47:46;;;;;;;61.08;18.45;;;;;;;4.25;71.96;100180.28;4993070;28;20036;-82
2023/03/05 02:50:14;;;;;;;57.33;17.77;;;;;;;4.24;71.79;100174.19;5005633;28;20182;-81
2023/03/05 02:52:40;;;;;;;55.67;17.85;;;;;;;4.24;71.89;100179.47;5016351;28;20045;-81
2023/03/05 02:55:11;;;;;;;67.32;18.55;;;;;;;4.25;71.64;100173.28;5000560;28;20041;-82
2023/03/05 02:57:39;;;;;;;64.63;18.50;;;;;;;4.27;71.85;100170.56;5001567;28;20564;-81
2023/03/05 03:00:06;;;;;;;58.28;17.85;;;;;;;4.25;71.97;100165.41;5016290;28;20069;-83
2023/03/05 03:02:33;;;;;;;60.13;19.42;;;;;;;4.26;71.68;100160.97;4997587;28;20048;-81
2023/03/05 03:05:00;;;;;;;60.30;17.75;;;;;;;4.26;71.77;100164.44;5017163;28;20053;-80
2023/03/05 03:07:27;;;;;;;56.60;17.77;;;;;;;4.23;71.70;100163.78;5030285;28;20065;-81
2023/03/05 03:09:53;;;;;;;66.97;19.08;;;;;;;4.24;71.91;100161.06;5015541;28;20124;-81
2023/03/05 03:12:21;;;;;;;69.28;19.23;;;;;;;4.20;71.98;100156.06;5001145;28;20045;-82
2023/03/05 03:14:48;;;;;;;63.67;19.38;;;;;;;4.18;72.07;100152.69;5023016;28;20053;-82
2023/03/05 03:17:17;;;;;;;66.68;18.42;;;;;;;4.21;71.94;100149.88;5036878;28;20092;-82
2023/03/05 03:19:44;;;;;;;59.17;18.52;;;;;;;4.22;71.85;100141.91;5020608;28;20045;-82
2023/03/05 03:22:12;;;;;;;58.55;18.50;;;;;;;4.25;71.97;100135.63;5026818;28;20055;-82
2023/03/05 03:24:40;;;;;;;62.53;18.42;;;;;;;4.25;71.97;100143.50;5008543;28;20042;-81
2023/03/05 03:27:07;;;;;;;57.67;17.20;;;;;;;4.23;72.35;100143.59;5008069;28;20041;-81
2023/03/05 03:29:35;;;;;;;57.00;18.13;;;;;;;4.23;72.20;100142.75;5004443;28;20074;-81
2023/03/05 03:32:03;;;;;;;57.15;18.17;;;;;;;4.22;72.31;100141.06;5010147;28;20124;-82
2023/03/05 03:34:30;;;;;;;66.97;18.38;;;;;;;4.21;72.50;100137.59;5011655;28;20049;-82
2023/03/05 03:36:57;;;;;;;61.38;17.42;;;;;;;4.19;72.32;100130.72;4992289;28;20526;-81
2023/03/05 03:39:24;;;;;;;56.78;17.75;;;;;;;4.21;72.23;100129.69;5034332;28;20041;-81
2023/03/05 03:41:52;;;;;;;58.22;17.73;;;;;;;4.20;72.32;100120.13;4993375;28;20053;-82
2023/03/05 03:44:19;;;;;;;57.95;18.25;;;;;;;4.21;72.53;100129.69;5020332;28;20500;-81
2023/03/05 03:46:48;;;;;;;55.90;18.58;;;;;;;4.19;72.43;100118.41;5009267;28;20098;-81
2023/03/05 03:49:24;;;;;;;55.55;17.95;;;;;;;4.16;72.78;100121.22;4991038;28;20151;-81
2023/03/05 03:51:53;;;;;;;59.63;19.30;;;;;;;4.23;72.32;100121.72;5004322;28;20052;-81
2023/03/05 03:54:21;;;;;;;60.65;20.38;;;;;;;4.22;72.48;100122.66;5028043;28;20037;-82
2023/03/05 03:56:47;;;;;;;53.22;18.23;;;;;;;4.22;72.79;100120.03;5007462;28;20049;-81
2023/03/05 03:59:14;;;;;;;58.50;16.83;;;;;;;4.18;72.85;100121.16;5015452;28;20132;-82
2023/03/05 04:01:41;;;;;;;57.85;18.42;;;;;;;4.15;73.21;100122.19;5014230;28;20081;-82
2023/03/05 04:04:09;;;;;;;57.03;17.80;;;;;;;4.16;72.97;100118.59;5026333;28;20405;-82
2023/03/05 04:06:36;;;;;;;65.13;18.63;;;;;;;4.18;73.26;100116.75;5019525;28;20559;-82
2023/03/05 04:09:04;;;;;;;52.72;17.98;;;;;;;4.16;73.11;100118.59;5021173;28;20134;-86
2023/03/05 04:11:30;;;;;;;63.88;17.80;;;;;;;4.12;73.48;100114.44;5020299;28;20064;-82
2023/03/05 04:13:57;;;;;;;61.55;18.23;;;;;;;4.10;73.92;100113.72;5019573;28;20503;-81
2023/03/05 04:16:24;;;;;;;55.72;18.58;;;;;;;4.09;74.09;100112.00;5002495;28;20495;-81
2023/03/05 04:18:51;;;;;;;58.03;17.40;;;;;;;4.14;73.27;100110.78;5019939;28;20083;-82
2023/03/05 04:21:17;;;;;;;60.72;18.13;;;;;;;4.13;73.78;100110.91;5023591;28;20448;-82
2023/03/05 04:23:44;;;;;;;65.43;19.17;;;;;;;4.14;73.56;100108.16;5036816;28;20042;-82
2023/03/05 04:26:11;;;;;;;57.72;18.20;;;;;;;4.12;73.46;100104.81;5022146;28;20059;-81
2023/03/05 04:28:38;;;;;;;58.30;17.90;;;;;;;4.10;74.01;100109.28;5032672;28;20099;-82
2023/03/05 04:31:05;;;;;;;60.00;18.65;;;;;;;4.05;74.19;100100.00;5006190;28;20051;-82
2023/03/05 04:33:32;;;;;;;66.47;19.85;;;;;;;4.07;74.28;100104.22;4986348;28;20063;-82
2023/03/05 04:35:59;;;;;;;61.28;18.85;;;;;;;4.07;74.53;100101.59;5025063;28;20045;-82
2023/03/05 04:38:26;;;;;;;63.50;18.75;;;;;;;4.05;74.39;100095.56;5032282;28;20050;-81
2023/03/05 04:40:52;;;;;;;64.50;19.92;;;;;;;4.09;74.18;100102.31;5005034;28;20068;-81
2023/03/05 04:43:19;;;;;;;72.28;19.92;;;;;;;4.06;74.45;100105.13;5013769;28;20048;-82
2023/03/05 04:45:46;;;;;;;60.53;18.70;;;;;;;4.08;74.12;100098.03;5019277;28;20045;-82
2023/03/05 04:48:13;;;;;;;54.38;17.63;;;;;;;4.09;74.32;100101.47;5016786;28;20049;-81
2023/03/05 04:50:39;;;;;;;61.88;18.35;;;;;;;4.07;74.38;100101.59;5035726;28;20508;-83
2023/03/05 04:53:06;;;;;;;60.78;17.60;;;;;;;4.05;74.67;100092.94;5012168;28;20102;-81
2023/03/05 04:55:33;;;;;;;58.03;18.77;;;;;;;4.08;74.55;100102.44;5021714;28;20052;-81
2023/03/05 04:58:00;;;;;;;57.13;18.50;;;;;;;4.09;74.45;100099.69;5012392;28;20114;-83
2023/03/05 05:00:26;;;;;;;59.33;17.88;;;;;;;4.09;74.42;100098.84;5006574;28;20044;-81
2023/03/05 05:02:53;;;;;;;58.60;18.70;;;;;;;4.09;74.38;100099.69;5021632;28;20164;-82
2023/03/05 05:05:23;;;;;;;59.85;17.77;;;;;;;4.07;74.63;100095.47;4990908;28;20049;-87
2023/03/05 05:07:53;;;;;;;61.78;19.77;;;;;;;4.12;74.12;100103.94;5017355;28;20428;-81
2023/03/05 05:10:19;;;;;;;69.07;20.08;;;;;;;4.12;74.38;100101.31;5022200;28;20055;-81
2023/03/05 05:12:46;;;;;;;66.05;18.48;;;;;;;4.14;74.11;100097.66;5016148;28;20053;-81
2023/03/05 05:15:13;;;;;;;58.35;18.38;;;;;;;4.15;74.28;100088.00;5004840;28;20069;-81
2023/03/05 05:17:40;;;;;;;60.15;18.55;;;;;;;4.18;73.79;100082.56;5003867;28;20488;-81
2023/03/05 05:20:09;;;;;;;62.08;18.35;;;;;;;4.20;73.52;100079.84;5015311;28;20041;-82
2023/03/05 05:22:36;;;;;;;67.05;19.15;;;;;;;4.23;73.55;100077.06;5009440;28;20045;-81
2023/03/05 05:25:04;;;;;;;55.65;17.50;;;;;;;4.27;73.22;100075.91;4996589;28;20507;-82
2023/03/05 05:27:30;;;;;;;52.85;18.23;;;;;;;4.24;73.32;100076.94;5001768;28;20077;-81
2023/03/05 05:29:57;;;;;;;59.80;18.65;;;;;;;4.25;73.07;100073.41;5002290;28;20132;-82
2023/03/05 05:32:24;;;;;;;59.47;17.00;;;;;;;4.26;73.21;100071.63;5011543;28;20053;-86
2023/03/05 05:34:55;;;;;;;64.85;18.10;;;;;;;4.20;73.54;100070.19;5004154;28;20053;-81
2023/03/05 05:37:23;;;;;;;55.25;19.58;;;;;;;4.22;73.17;100072.72;5016156;28;20517;-82
2023/03/05 05:39:50;;;;;;;56.85;17.05;;;;;;;4.21;73.40;100074.50;5004381;28;20041;-81
2023/03/05 05:42:17;;;;;;;63.30;19.00;;;;;;;4.21;73.36;100074.50;5021232;28;20041;-82
2023/03/05 05:44:45;;;;;;;65.53;19.88;;;;;;;4.19;73.72;100078.16;5019581;28;20048;-82
2023/03/05 05:47:13;;;;;;;61.10;18.02;;;;;;;4.18;73.93;100079.94;5019079;28;20045;-82
2023/03/05 05:49:40;;;;;;;54.38;18.35;;;;;;;4.14;74.12;100087.13;5016394;28;20048;-82
2023/03/05 05:52:07;;;;;;;57.78;17.35;;;;;;;4.12;74.35;100082.91;5011155;28;20053;-87
2023/03/05 05:54:33;;;;;;;58.05;18.67;;;;;;;4.09;74.61;100083.09;5033758;28;20492;-81
2023/03/05 05:57:00;;;;;;;66.00;19.17;;;;;;;4.08;74.51;100073.53;5030810;28;20404;-81
2023/03/05 05:59:27;;;;;;;66.95;18.63;;;;;;;4.06;74.65;100078.84;4992465;28;20037;-85
2023/03/05 06:01:53;;;;;;;55.95;17.48;;;;;;;4.06;74.66;100078.03;5016124;28;20961;-82
2023/03/05 06:04:21;;;;;;;54.92;16.33;;;;;;;4.08;74.74;100077.00;5004792;28;20041;-82
2023/03/05 06:06:47;;;;;;;58.53;18.73;;;;;;;4.04;74.96;100077.25;4989764;28;20055;-82
2023/03/05 06:09:14;;;;;;;55.88;19.23;;;;;;;4.03;75.12;100079.03;4983948;28;20056;-82
2023/03/05 06:11:41;;;;;;;45.78;17.73;;;;;;;4.02;75.11;100072.09;4989237;28;20041;-82
2023/03/05 06:14:09;;;;;;;57.75;16.90;;;;;;;4.05;75.10;100079.81;5008406;28;20041;-81
2023/03/05 06:16:36;;;;;;;62.95;20.33;;;;;;;4.07;74.86;100072.69;5019417;28;20034;-81
2023/03/05 06:19:03;;;;;;;70.93;19.23;;;;;;;4.10;74.56;100075.13;5008305;28;20373;-81
2023/03/05 06:21:30;;;;;;;52.55;18.58;;;;;;;4.12;74.43;100072.41;5034279;28;20049;-81
2023/03/05 06:23:57;;;;;;;60.40;19.45;;;;;;;4.13;74.43;100074.94;4998229;28;20091;-82
2023/03/05 06:26:24;;;;;;;52.53;17.17;;;;;;;4.12;74.28;100072.41;5022313;28;20107;-82
2023/03/05 06:28:51;;;;;;;57.72;18.83;;;;;;;4.09;74.54;100072.56;5005596;28;20130;-85
2023/03/05 06:31:26;;;;;;;51.90;17.83;;;;;;;4.08;74.59;100071.75;5005239;28;20489;-81
2023/03/05 06:34:00;;;;;;;58.17;18.48;;;;;;;4.04;74.78;100074.63;5002320;28;20054;-82
2023/03/05 06:36:27;;;;;;;53.92;18.42;;;;;;;4.03;74.98;100072.94;5023040;28;20504;-81
2023/03/05 06:38:54;;;;;;;54.15;17.65;;;;;;;4.02;75.07;100072.09;5019552;28;20060;-81
2023/03/05 06:41:26;;;;;;;61.80;20.77;;;;;;;4.02;75.23;100068.59;4985861;28;20046;-81
2023/03/05 06:43:54;;;;;;;61.60;17.93;;;;;;;4.01;75.09;100073.03;4999688;28;20064;-81
2023/03/05 06:46:28;;;;;;;58.38;18.83;;;;;;;4.00;75.55;100070.50;5005705;28;20862;-82
2023/03/05 06:48:56;;;;;;;65.50;19.52;;;;;;;3.99;75.60;100071.41;4988626;28;20079;-82
2023/03/05 06:51:34;;;;;;;62.42;18.98;;;;;;;3.98;76.11;100069.75;5000959;28;20132;-81
2023/03/05 06:54:13;;;;;;;55.67;19.00;;;;;;;3.98;76.05;100069.75;4986061;28;20053;-81
2023/03/05 06:56:42;;;;;;;67.35;18.38;;;;;;;3.98;76.19;100078.47;4984511;28;20045;-81
2023/03/05 06:59:10;;;;;;;66.70;19.27;;;;;;;4.00;76.00;100073.97;5003039;28;20404;-82
2023/03/05 07:01:37;;;;;;;63.20;18.92;;;;;;;4.03;76.00;100076.41;5022075;28;20053;-80
2023/03/05 07:04:04;;;;;;;57.03;18.42;;;;;;;4.02;76.00;100071.22;4987730;28;20049;-80
2023/03/05 07:06:33;;;;;;;63.35;19.17;;;;;;;4.08;75.74;100073.53;5005397;28;20041;-80
2023/03/05 07:09:00;;;;;;;55.35;17.63;;;;;;;4.09;75.60;100070.78;5003525;28;20083;-81
2023/03/05 07:11:27;;;;;;;55.20;16.95;;;;;;;4.08;75.63;100071.75;5018632;28;20803;-81
2023/03/05 07:13:53;;;;;;;53.53;18.88;;;;;;;4.10;75.33;100074.28;5000007;28;20057;-81
2023/03/05 07:16:23;;;;;;;55.90;17.73;;;;;;;4.09;75.52;100072.56;5014705;28;20052;-81
2023/03/05 07:18:50;;;;;;;66.70;20.02;;;;;;;4.09;75.54;100068.16;5012863;28;20041;-81
2023/03/05 07:21:22;;;;;;;55.65;19.15;;;;;;;4.09;76.47;100073.41;5016946;28;20045;-81
2023/03/05 07:23:51;;;;;;;52.47;18.53;;;;;;;4.10;76.28;100071.66;4996915;28;20053;-82
2023/03/05 07:26:19;;;;;;;56.78;18.73;;;;;;;4.15;75.51;100067.00;5007489;28;20127;-85
2023/03/05 07:28:45;;;;;;;56.20;18.33;;;;;;;4.19;75.21;100072.91;5016226;28;20048;-81
2023/03/05 07:31:15;;;;;;;45.13;16.48;;;;;;;4.16;75.12;100067.81;5012942;28;20408;-81
2023/03/05 07:33:42;;;;;;;49.80;18.02;;;;;;;4.18;75.18;100072.06;5023656;28;20045;-82
2023/03/05 07:36:09;;;;;;;58.08;18.38;;;;;;;4.19;74.97;100065.84;5002286;28;20037;-81
2023/03/05 07:38:36;;;;;;;50.42;17.58;;;;;;;4.20;75.04;100070.19;4983995;28;20037;-81
2023/03/05 07:41:08;;;;;;;54.25;17.85;;;;;;;4.20;75.37;100064.94;5032590;28;20518;-81
2023/03/05 07:43:35;;;;;;;54.72;17.40;;;;;;;4.18;75.47;100064.16;5021581;28;20037;-81
2023/03/05 07:46:10;;;;;;;63.95;19.40;;;;;;;4.16;75.68;100067.81;5017613;28;20400;-82
2023/03/05 07:48:37;;;;;;;58.20;18.38;;;;;;;4.19;75.09;100059.75;5026378;28;20041;-80
2023/03/05 07:51:06;;;;;;;57.15;17.60;;;;;;;4.19;75.39;100063.22;5020284;28;20103;-81
2023/03/05 07:53:33;;;;;;;57.92;17.38;;;;;;;4.18;75.36;100066.81;5025248;28;20045;-82
2023/03/05 07:56:01;;;;;;;51.90;17.17;;;;;;;4.22;74.83;100065.66;5032542;28;20147;-81
2023/03/05 07:58:28;;;;;;;56.55;18.10;;;;;;;4.24;74.68;100068.22;5016517;28;20052;-81
2023/03/05 08:00:55;;;;;;;49.75;17.17;;;;;;;4.24;74.79;100069.06;4992155;28;20045;-82
2023/03/05 08:03:22;;;;;;;61.90;18.98;;;;;;;4.28;75.01;100067.13;5021414;28;20051;-81
2023/03/05 08:05:48;;;;;;;53.80;18.27;;;;;;;4.27;75.01;100070.66;5007623;28;20635;-80
2023/03/05 08:08:15;;;;;;;49.35;16.50;;;;;;;4.31;74.57;100069.56;4992901;28;20480;-82
2023/03/05 08:10:42;;;;;;;50.10;17.42;;;;;;;4.27;74.58;100068.88;5014142;28;20042;-81
2023/03/05 08:13:09;;;;;;;54.63;19.20;;;;;;;4.31;74.42;100069.56;5012676;28;20041;-81
2023/03/05 08:15:36;;;;;;;47.05;17.73;;;;;;;4.33;74.16;100059.81;5009119;28;20050;-86
2023/03/05 08:18:03;;;;;;;50.55;18.35;;;;;;;4.35;74.55;100060.53;5020693;28;20049;-81
2023/03/05 08:20:30;;;;;;;54.13;16.95;;;;;;;4.35;74.32;100058.78;5003527;28;20044;-80
2023/03/05 08:22:57;;;;;;;48.08;18.33;;;;;;;4.36;74.38;100054.34;5009063;28;20404;-82
2023/03/05 08:25:23;;;;;;;46.55;17.08;;;;;;;4.38;74.24;100056.91;5013952;28;20560;-81
2023/03/05 08:27:50;;;;;;;49.75;17.77;;;;;;;4.38;74.23;100054.28;5021322;28;20458;-82
2023/03/05 08:30:21;;;;;;;55.00;16.60;;;;;;;4.38;73.86;100051.66;5008709;28;22569;-83
2023/03/05 08:32:49;;;;;;;49.42;17.15;;;;;;;4.41;73.86;100052.31;5012610;28;20103;-83
2023/03/05 08:35:15;;;;;;;53.60;17.88;;;;;;;4.43;73.82;100050.44;5033640;28;20084;-83
2023/03/05 08:37:42;;;;;;;58.97;18.25;;;;;;;4.42;73.92;100046.09;5031458;28;20052;-82
2023/03/05 08:40:09;;;;;;;60.58;18.38;;;;;;;4.44;73.65;100046.84;5038087;28;20111;-82
2023/03/05 08:42:36;;;;;;;50.17;16.40;;;;;;;4.47;73.80;100051.09;5035893;28;20056;-82
2023/03/05 08:45:03;;;;;;;47.58;18.13;;;;;;;4.49;73.64;100042.16;5032675;28;20116;-83
2023/03/05 08:47:30;;;;;;;52.63;16.85;;;;;;;4.49;73.60;100041.31;5032327;28;20057;-82
2023/03/05 08:49:57;;;;;;;53.65;17.65;;;;;;;4.53;73.46;100037.59;5034048;28;20053;-83
2023/03/05 08:52:26;;;;;;;52.05;18.80;;;;;;;4.53;73.60;100032.31;5015009;28;20041;-82
2023/03/05 08:54:52;;;;;;;49.70;17.20;;;;;;;4.55;73.61;100038.31;5034336;28;20079;-82
2023/03/05 08:57:19;;;;;;;50.25;17.13;;;;;;;4.59;73.50;100039.00;5005478;28;20049;-83
2023/03/05 08:59:46;;;;;;;49.17;16.13;;;;;;;4.62;73.56;100041.44;5030167;28;20071;-83
2023/03/05 09:02:13;;;;;;;60.30;19.50;;;;;;;4.61;73.22;100037.13;5019361;28;20049;-83
2023/03/05 09:04:40;;;;;;;50.58;18.35;;;;;;;4.61;73.24;100037.13;5028513;28;20037;-82
2023/03/05 09:07:07;;;;;;;50.35;17.27;;;;;;;4.63;73.28;100036.09;5035005;28;20123;-82
2023/03/05 09:09:34;;;;;;;46.22;15.95;;;;;;;4.66;73.33;100035.06;5032283;28;20045;-82
2023/03/05 09:12:01;;;;;;;56.80;16.40;;;;;;;4.67;73.46;100032.31;5035907;28;20053;-82
2023/03/05 09:14:28;;;;;;;53.72;18.52;;;;;;;4.70;73.47;100028.66;5022833;28;20052;-82
2023/03/05 09:16:55;;;;;;;47.92;18.30;;;;;;;4.71;73.60;100025.09;5031469;28;20057;-82
2023/03/05 09:19:22;;;;;;;47.90;17.17;;;;;;;4.73;73.43;100021.44;5032971;28;20037;-82
2023/03/05 09:21:49;;;;;;;49.58;17.52;;;;;;;4.75;73.53;100022.16;5017585;28;20053;-83
2023/03/05 09:24:16;;;;;;;49.78;17.63;;;;;;;4.78;73.33;100024.63;5033439;28;20500;-82
2023/03/05 09:26:43;;;;;;;44.28;15.70;;;;;;;4.81;73.21;100013.06;5020172;28;20049;-82
2023/03/05 09:29:11;;;;;;;50.10;17.40;;;;;;;4.85;73.53;100009.28;5023999;28;20103;-83
2023/03/05 09:31:38;;;;;;;49.40;16.48;;;;;;;4.89;73.30;100012.59;5030970;28;20052;-82
2023/03/05 09:34:05;;;;;;;45.38;17.27;;;;;;;4.91;73.24;100008.06;5029857;28;20099;-83
2023/03/05 09:36:31;;;;;;;44.42;17.98;;;;;;;4.91;73.22;100002.81;5002555;28;20073;-82
2023/03/05 09:38:58;;;;;;;45.38;16.27;;;;;;;4.95;73.34;99999.88;5021056;28;20111;-82
2023/03/05 09:41:25;;;;;;;46.67;16.67;;;;;;;4.98;73.08;99998.84;5004513;28;20114;-83
2023/03/05 09:44:08;;;;;;;45.42;16.30;;;;;;;5.00;73.09;99989.91;5035868;28;20045;-82
2023/03/05 09:46:49;;;;;;;43.37;16.30;;;;;;;4.99;72.93;99988.25;5018296;28;20123;-83
2023/03/05 09:49:28;;;;;;;45.67;15.88;;;;;;;5.04;73.07;99992.34;5003505;28;20045;-82
2023/03/05 09:52:00;;;;;;;44.00;16.13;;;;;;;5.08;72.82;99985.97;4997986;28;20132;-82
2023/03/05 09:54:36;;;;;;;45.17;15.68;;;;;;;5.08;72.82;99989.44;4975805;28;20044;-83
2023/03/05 09:57:04;;;;;;;32.08;13.05;;;;;;;5.12;72.19;99990.09;4978081;28;20049;-82
2023/03/05 09:59:48;;;;;;;30.10;13.40;;;;;;;5.07;71.02;99993.03;5023274;28;20045;-83
2023/03/05 10:02:20;;;;;;;34.55;13.15;;;;;;;5.08;71.43;99991.22;4975233;28;20045;-82
2023/03/05 10:04:54;;;;;;;32.28;13.88;;;;;;;5.08;71.30;99985.97;5031523;28;20099;-82
2023/03/05 10:07:28;;;;;;;41.50;14.43;;;;;;;5.08;71.33;99986.81;5006479;28;20053;-83
2023/03/05 10:09:55;;;;;;;40.65;14.75;;;;;;;5.11;71.50;99986.59;5034234;28;20041;-83
2023/03/05 10:12:42;;;;;;;33.88;15.05;;;;;;;5.08;71.31;99983.34;5014407;28;20500;-82
2023/03/05 10:15:14;;;;;;;36.80;14.45;;;;;;;5.12;71.41;99972.53;4990981;28;20057;-82
2023/03/05 10:18:26;;;;;;;45.72;14.55;;;;;;;5.08;71.87;99975.44;5020734;28;20063;-83
2023/03/05 10:21:02;;;;;;;46.58;15.18;;;;;;;5.09;71.76;99967.47;4953726;28;20041;-83
2023/03/05 10:23:32;;;;;;;41.00;15.30;;;;;;;5.15;71.86;99963.59;5038000;28;20049;-83
2023/03/05 10:26:07;;;;;;;42.63;15.15;;;;;;;5.11;71.79;99964.72;5025096;28;20049;-83
2023/03/05 10:29:03;;;;;;;40.80;14.20;;;;;;;5.06;71.35;99964.16;5023246;28;20048;-83
2023/03/05 10:31:40;;;;;;;34.15;14.07;;;;;;;5.08;71.20;99957.00;4998616;28;20042;-83
2023/03/05 10:34:24;;;;;;;35.20;13.93;;;;;;;5.13;71.44;99958.41;4993918;28;20037;-82
2023/03/05 10:36:54;;;;;;;37.28;13.85;;;;;;;5.18;71.24;99948.41;4984244;28;20401;-83
2023/03/05 10:39:51;;;;;;;34.45;13.25;;;;;;;5.16;70.53;99962.63;5027441;28;20048;-83
2023/03/05 10:42:23;;;;;;;33.30;13.68;;;;;;;5.18;70.73;99952.84;4992489;28;20057;-82
2023/03/05 10:44:54;;;;;;;32.15;13.25;;;;;;;5.20;70.85;99949.16;5029290;28;20454;-82
2023/03/05 10:47:39;;;;;;;35.28;13.90;;;;;;;5.15;70.88;99951.25;5029801;28;20091;-82
2023/03/05 10:50:29;;;;;;;36.85;14.02;;;;;;;5.15;71.04;99943.34;5008270;28;20077;-82
2023/03/05 10:53:05;;;;;;;35.67;14.32;;;;;;;5.18;70.87;99945.78;4989002;28;20068;-83
2023/03/05 10:55:32;;;;;;;34.63;13.52;;;;;;;5.17;70.91;99940.66;4986611;28;20053;-83
2023/03/05 10:58:00;;;;;;;32.65;14.27;;;;;;;5.18;71.08;99937.06;5007330;28;20049;-82
2023/03/05 11:00:27;;;;;;;31.10;12.27;;;;;;;5.20;71.03;99940.44;5033401;28;20491;-82
2023/03/05 11:02:57;;;;;;;37.17;14.60;;;;;;;5.22;70.98;99943.81;5016752;28;20488;-82
2023/03/05 11:05:40;;;;;;;40.03;13.23;;;;;;;5.17;70.15;99938.84;5016282;28;20136;-83
2023/03/05 11:08:31;;;;;;;38.45;13.57;;;;;;;5.16;70.14;99931.03;5002447;28;20120;-83
2023/03/05 11:11:09;;;;;;;36.95;13.20;;;;;;;5.18;70.42;99931.78;4960672;28;20501;-83
2023/03/05 11:13:43;;;;;;;37.78;13.40;;;;;;;5.17;70.42;99923.06;4964209;28;20038;-82
2023/03/05 11:16:40;;;;;;;34.10;13.38;;;;;;;5.16;69.88;99916.09;4987615;28;20130;-82
2023/03/05 11:19:17;;;;;;;35.30;13.02;;;;;;;5.17;70.21;99909.91;4943955;28;20052;-82
2023/03/05 11:21:46;;;;;;;28.65;12.13;;;;;;;5.19;70.38;99909.78;4967438;28;20041;-83
2023/03/05 11:24:15;;;;;;;34.40;13.18;;;;;;;5.23;70.49;99903.38;4961231;28;20057;-82
2023/03/05 11:26:50;;;;;;;26.58;11.48;;;;;;;5.25;70.52;99901.50;4964214;28;20559;-83
2023/03/05 11:29:20;;;;;;;28.23;11.77;;;;;;;5.28;70.65;99896.03;4958883;28;20152;-82